Terminal Aerodrome Forecast
Issued by NWS

Home | Current Version | Previous Version | Text Only | Print | Product List | Glossary On
Versions: 1 2 3 4 5 6 7 8 9 10 11 12 13 14 15 16 17 18 19 20 21 22 23 24 25 26
000
FTUS41 KBUF 292300
TAFIAG
TAF
KIAG 292331Z 3000/3024 07005KT P6SM SCT200
     FM300300 11004KT P6SM BKN100
     FM300500 16007KT P6SM BKN090
     FM301000 18009KT P6SM SCT110
     FM301500 19010G18KT P6SM SCT200
     FM302300 20010KT P6SM SCT045 BKN060=

USA.gov is the U.S. government's official web portal to all federal, state and local government web resources and services.